sensor_id;sensor_type;location;lat;lon;timestamp;P1;durP1;ratioP1;P2;durP2;ratioP2
77738;SDS011;66904;59.926;30.404;2023-03-23T00:00:33;1.00;;;0.55;;
77738;SDS011;66904;59.926;30.404;2023-03-23T00:05:35;1.05;;;0.40;;
77738;SDS011;66904;59.926;30.404;2023-03-23T00:10:36;0.70;;;0.28;;
77738;SDS011;66904;59.926;30.404;2023-03-23T00:15:37;1.63;;;0.90;;
77738;SDS011;66904;59.926;30.404;2023-03-23T00:20:41;1.02;;;0.70;;
77738;SDS011;66904;59.926;30.404;2023-03-23T00:25:47;0.80;;;0.40;;
77738;SDS011;66904;59.926;30.404;2023-03-23T00:30:58;0.82;;;0.40;;
77738;SDS011;66904;59.926;30.404;2023-03-23T00:36:12;1.00;;;0.57;;
77738;SDS011;66904;59.926;30.404;2023-03-23T00:41:13;0.80;;;0.43;;
77738;SDS011;66904;59.926;30.404;2023-03-23T00:46:15;0.98;;;0.40;;
77738;SDS011;66904;59.926;30.404;2023-03-23T00:51:16;1.15;;;0.57;;
77738;SDS011;66904;59.926;30.404;2023-03-23T00:56:19;0.68;;;0.47;;
77738;SDS011;66904;59.926;30.404;2023-03-23T01:01:20;0.68;;;0.30;;
77738;SDS011;66904;59.926;30.404;2023-03-23T01:06:20;0.95;;;0.50;;
77738;SDS011;66904;59.926;30.404;2023-03-23T01:11:21;0.50;;;0.30;;
77738;SDS011;66904;59.926;30.404;2023-03-23T01:16:22;1.02;;;0.43;;
77738;SDS011;66904;59.926;30.404;2023-03-23T01:21:22;0.77;;;0.40;;
77738;SDS011;66904;59.926;30.404;2023-03-23T01:26:26;1.25;;;0.60;;
77738;SDS011;66904;59.926;30.404;2023-03-23T01:31:27;1.08;;;0.40;;
77738;SDS011;66904;59.926;30.404;2023-03-23T01:36:28;1.13;;;0.50;;
77738;SDS011;66904;59.926;30.404;2023-03-23T01:41:32;0.80;;;0.40;;
77738;SDS011;66904;59.926;30.404;2023-03-23T01:46:35;0.60;;;0.38;;
77738;SDS011;66904;59.926;30.404;2023-03-23T01:51:37;0.75;;;0.40;;
77738;SDS011;66904;59.926;30.404;2023-03-23T01:57:09;1.15;;;0.50;;
77738;SDS011;66904;59.926;30.404;2023-03-23T02:02:21;1.13;;;0.43;;
77738;SDS011;66904;59.926;30.404;2023-03-23T02:07:24;0.63;;;0.22;;
77738;SDS011;66904;59.926;30.404;2023-03-23T02:12:24;0.68;;;0.30;;
77738;SDS011;66904;59.926;30.404;2023-03-23T02:39:24;0.75;;;0.38;;
77738;SDS011;66904;59.926;30.404;2023-03-23T02:44:53;0.68;;;0.25;;
77738;SDS011;66904;59.926;30.404;2023-03-23T02:49:56;0.70;;;0.30;;
77738;SDS011;66904;59.926;30.404;2023-03-23T02:54:59;0.43;;;0.20;;
77738;SDS011;66904;59.926;30.404;2023-03-23T03:00:03;0.40;;;0.30;;
77738;SDS011;66904;59.926;30.404;2023-03-23T03:11:12;1.15;;;0.73;;
77738;SDS011;66904;59.926;30.404;2023-03-23T03:21:23;0.68;;;0.32;;
77738;SDS011;66904;59.926;30.404;2023-03-23T03:26:31;0.73;;;0.30;;
77738;SDS011;66904;59.926;30.404;2023-03-23T03:31:33;0.70;;;0.28;;
77738;SDS011;66904;59.926;30.404;2023-03-23T03:36:38;0.50;;;0.30;;
77738;SDS011;66904;59.926;30.404;2023-03-23T03:41:41;0.85;;;0.43;;
77738;SDS011;66904;59.926;30.404;2023-03-23T03:46:42;0.68;;;0.35;;
77738;SDS011;66904;59.926;30.404;2023-03-23T03:51:43;0.95;;;0.40;;
77738;SDS011;66904;59.926;30.404;2023-03-23T03:56:44;0.52;;;0.30;;
77738;SDS011;66904;59.926;30.404;2023-03-23T04:01:45;0.73;;;0.35;;
77738;SDS011;66904;59.926;30.404;2023-03-23T04:06:46;1.13;;;0.40;;
77738;SDS011;66904;59.926;30.404;2023-03-23T04:11:48;0.70;;;0.45;;
77738;SDS011;66904;59.926;30.404;2023-03-23T04:16:49;0.83;;;0.43;;
77738;SDS011;66904;59.926;30.404;2023-03-23T04:21:51;0.82;;;0.40;;
77738;SDS011;66904;59.926;30.404;2023-03-23T04:26:52;0.50;;;0.22;;
77738;SDS011;66904;59.926;30.404;2023-03-23T04:31:54;0.75;;;0.30;;
77738;SDS011;66904;59.926;30.404;2023-03-23T04:36:55;0.77;;;0.45;;
77738;SDS011;66904;59.926;30.404;2023-03-23T04:41:56;0.98;;;0.47;;
77738;SDS011;66904;59.926;30.404;2023-03-23T04:47:01;2.63;;;0.85;;
77738;SDS011;66904;59.926;30.404;2023-03-23T04:52:02;0.90;;;0.50;;
77738;SDS011;66904;59.926;30.404;2023-03-23T04:57:02;0.82;;;0.40;;
77738;SDS011;66904;59.926;30.404;2023-03-23T05:02:03;2.08;;;0.40;;
77738;SDS011;66904;59.926;30.404;2023-03-23T05:07:03;1.50;;;0.47;;
77738;SDS011;66904;59.926;30.404;2023-03-23T05:12:05;1.55;;;0.32;;
77738;SDS011;66904;59.926;30.404;2023-03-23T05:17:07;1.30;;;0.68;;
77738;SDS011;66904;59.926;30.404;2023-03-23T05:22:08;1.13;;;0.40;;
77738;SDS011;66904;59.926;30.404;2023-03-23T05:27:09;2.35;;;0.35;;
77738;SDS011;66904;59.926;30.404;2023-03-23T05:32:11;1.33;;;0.50;;
77738;SDS011;66904;59.926;30.404;2023-03-23T05:37:12;0.95;;;0.47;;
77738;SDS011;66904;59.926;30.404;2023-03-23T05:42:13;0.63;;;0.40;;
77738;SDS011;66904;59.926;30.404;2023-03-23T05:47:15;0.93;;;0.40;;
77738;SDS011;66904;59.926;30.404;2023-03-23T05:52:16;1.23;;;0.43;;
77738;SDS011;66904;59.926;30.404;2023-03-23T05:57:17;1.52;;;0.50;;
77738;SDS011;66904;59.926;30.404;2023-03-23T06:02:18;0.52;;;0.30;;
77738;SDS011;66904;59.926;30.404;2023-03-23T06:07:18;0.73;;;0.40;;
77738;SDS011;66904;59.926;30.404;2023-03-23T06:12:20;1.30;;;0.52;;
77738;SDS011;66904;59.926;30.404;2023-03-23T06:17:22;1.25;;;0.32;;
77738;SDS011;66904;59.926;30.404;2023-03-23T06:22:22;0.98;;;0.40;;
77738;SDS011;66904;59.926;30.404;2023-03-23T06:27:23;0.47;;;0.22;;
77738;SDS011;66904;59.926;30.404;2023-03-23T06:32:25;1.25;;;0.30;;
77738;SDS011;66904;59.926;30.404;2023-03-23T06:37:29;1.02;;;0.50;;
77738;SDS011;66904;59.926;30.404;2023-03-23T06:42:30;0.80;;;0.45;;
77738;SDS011;66904;59.926;30.404;2023-03-23T06:47:31;1.47;;;0.40;;
77738;SDS011;66904;59.926;30.404;2023-03-23T06:52:31;1.00;;;0.52;;
77738;SDS011;66904;59.926;30.404;2023-03-23T06:57:32;1.30;;;0.50;;
77738;SDS011;66904;59.926;30.404;2023-03-23T07:02:32;0.60;;;0.40;;
77738;SDS011;66904;59.926;30.404;2023-03-23T07:07:34;0.70;;;0.50;;
77738;SDS011;66904;59.926;30.404;2023-03-23T07:12:36;0.80;;;0.25;;
77738;SDS011;66904;59.926;30.404;2023-03-23T07:17:37;1.00;;;0.40;;
77738;SDS011;66904;59.926;30.404;2023-03-23T07:22:39;1.23;;;0.52;;
77738;SDS011;66904;59.926;30.404;2023-03-23T07:27:40;1.50;;;0.80;;
77738;SDS011;66904;59.926;30.404;2023-03-23T07:32:41;1.20;;;0.50;;
77738;SDS011;66904;59.926;30.404;2023-03-23T07:37:42;1.10;;;0.52;;
77738;SDS011;66904;59.926;30.404;2023-03-23T07:42:43;1.27;;;0.63;;
77738;SDS011;66904;59.926;30.404;2023-03-23T07:47:44;1.05;;;0.50;;
77738;SDS011;66904;59.926;30.404;2023-03-23T07:52:45;1.23;;;0.70;;
77738;SDS011;66904;59.926;30.404;2023-03-23T07:57:46;0.50;;;0.28;;
77738;SDS011;66904;59.926;30.404;2023-03-23T08:02:50;0.30;;;0.20;;
77738;SDS011;66904;59.926;30.404;2023-03-23T08:07:52;1.00;;;0.40;;
77738;SDS011;66904;59.926;30.404;2023-03-23T08:12:56;1.40;;;0.60;;
77738;SDS011;66904;59.926;30.404;2023-03-23T08:17:57;0.90;;;0.40;;
77738;SDS011;66904;59.926;30.404;2023-03-23T08:22:58;0.93;;;0.40;;
77738;SDS011;66904;59.926;30.404;2023-03-23T08:28:00;0.70;;;0.35;;
77738;SDS011;66904;59.926;30.404;2023-03-23T08:33:03;1.33;;;0.43;;
77738;SDS011;66904;59.926;30.404;2023-03-23T08:38:04;0.60;;;0.40;;
77738;SDS011;66904;59.926;30.404;2023-03-23T08:43:05;0.65;;;0.35;;
77738;SDS011;66904;59.926;30.404;2023-03-23T08:48:06;0.85;;;0.35;;
77738;SDS011;66904;59.926;30.404;2023-03-23T08:53:07;0.80;;;0.40;;
77738;SDS011;66904;59.926;30.404;2023-03-23T08:58:08;0.80;;;0.50;;
77738;SDS011;66904;59.926;30.404;2023-03-23T09:03:09;0.60;;;0.30;;
77738;SDS011;66904;59.926;30.404;2023-03-23T09:08:13;3.30;;;0.70;;
77738;SDS011;66904;59.926;30.404;2023-03-23T09:13:13;0.73;;;0.40;;
77738;SDS011;66904;59.926;30.404;2023-03-23T09:18:14;0.57;;;0.38;;
77738;SDS011;66904;59.926;30.404;2023-03-23T09:23:27;12.82;;;10.13;;
77738;SDS011;66904;59.926;30.404;2023-03-23T09:28:27;60.47;;;42.40;;
77738;SDS011;66904;59.926;30.404;2023-03-23T09:33:28;31.13;;;22.40;;
77738;SDS011;66904;59.926;30.404;2023-03-23T09:38:33;21.83;;;13.27;;
77738;SDS011;66904;59.926;30.404;2023-03-23T09:48:48;8.68;;;6.03;;
77738;SDS011;66904;59.926;30.404;2023-03-23T09:53:55;7.60;;;4.82;;
77738;SDS011;66904;59.926;30.404;2023-03-23T10:09:31;4.10;;;2.85;;
77738;SDS011;66904;59.926;30.404;2023-03-23T10:19:39;3.58;;;2.00;;
77738;SDS011;66904;59.926;30.404;2023-03-23T10:40:50;4.95;;;1.90;;
77738;SDS011;66904;59.926;30.404;2023-03-23T10:45:57;4.97;;;1.35;;
77738;SDS011;66904;59.926;30.404;2023-03-23T10:51:02;5.28;;;1.42;;
77738;SDS011;66904;59.926;30.404;2023-03-23T10:56:04;4.13;;;1.08;;
77738;SDS011;66904;59.926;30.404;2023-03-23T11:01:19;2.40;;;1.20;;
77738;SDS011;66904;59.926;30.404;2023-03-23T11:06:30;2.33;;;1.20;;
77738;SDS011;66904;59.926;30.404;2023-03-23T11:11:40;3.17;;;1.40;;
77738;SDS011;66904;59.926;30.404;2023-03-23T11:16:44;1.38;;;0.70;;
77738;SDS011;66904;59.926;30.404;2023-03-23T11:21:54;4.63;;;1.20;;
77738;SDS011;66904;59.926;30.404;2023-03-23T11:26:59;1.20;;;0.70;;
77738;SDS011;66904;59.926;30.404;2023-03-23T11:37:02;1.55;;;0.77;;
77738;SDS011;66904;59.926;30.404;2023-03-23T11:42:13;3.22;;;0.95;;
77738;SDS011;66904;59.926;30.404;2023-03-23T11:52:43;1.65;;;0.70;;
77738;SDS011;66904;59.926;30.404;2023-03-23T11:57:55;1.23;;;0.60;;
77738;SDS011;66904;59.926;30.404;2023-03-23T12:03:05;1.30;;;0.60;;
77738;SDS011;66904;59.926;30.404;2023-03-23T12:18:58;2.28;;;0.70;;
77738;SDS011;66904;59.926;30.404;2023-03-23T12:24:09;0.70;;;0.45;;
77738;SDS011;66904;59.926;30.404;2023-03-23T12:50:40;1.67;;;0.90;;
77738;SDS011;66904;59.926;30.404;2023-03-23T12:55:47;1.08;;;0.63;;
77738;SDS011;66904;59.926;30.404;2023-03-23T13:01:16;0.70;;;0.47;;
77738;SDS011;66904;59.926;30.404;2023-03-23T13:11:38;1.77;;;0.70;;
77738;SDS011;66904;59.926;30.404;2023-03-23T13:16:46;1.88;;;0.57;;
77738;SDS011;66904;59.926;30.404;2023-03-23T13:22:09;1.00;;;0.40;;
77738;SDS011;66904;59.926;30.404;2023-03-23T13:27:37;2.40;;;0.50;;
77738;SDS011;66904;59.926;30.404;2023-03-23T13:32:38;1.73;;;0.38;;
77738;SDS011;66904;59.926;30.404;2023-03-23T13:37:44;2.30;;;0.68;;
77738;SDS011;66904;59.926;30.404;2023-03-23T13:42:48;2.58;;;0.55;;
77738;SDS011;66904;59.926;30.404;2023-03-23T13:48:02;3.20;;;0.70;;
77738;SDS011;66904;59.926;30.404;2023-03-23T13:53:12;0.90;;;0.52;;
77738;SDS011;66904;59.926;30.404;2023-03-23T14:03:19;5.70;;;1.05;;
77738;SDS011;66904;59.926;30.404;2023-03-23T14:18:52;2.95;;;0.68;;
77738;SDS011;66904;59.926;30.404;2023-03-23T14:24:06;2.78;;;0.60;;
77738;SDS011;66904;59.926;30.404;2023-03-23T14:29:18;1.55;;;0.45;;
77738;SDS011;66904;59.926;30.404;2023-03-23T14:34:21;1.27;;;0.40;;
77738;SDS011;66904;59.926;30.404;2023-03-23T14:39:29;1.35;;;0.47;;
77738;SDS011;66904;59.926;30.404;2023-03-23T14:44:36;1.05;;;0.40;;
77738;SDS011;66904;59.926;30.404;2023-03-23T14:49:41;2.00;;;0.70;;
77738;SDS011;66904;59.926;30.404;2023-03-23T14:54:44;1.15;;;0.45;;
77738;SDS011;66904;59.926;30.404;2023-03-23T14:59:46;1.77;;;0.38;;
77738;SDS011;66904;59.926;30.404;2023-03-23T15:04:48;0.40;;;0.20;;
77738;SDS011;66904;59.926;30.404;2023-03-23T15:09:54;1.50;;;0.55;;
77738;SDS011;66904;59.926;30.404;2023-03-23T15:15:02;0.50;;;0.20;;
77738;SDS011;66904;59.926;30.404;2023-03-23T15:20:25;3.88;;;0.50;;
77738;SDS011;66904;59.926;30.404;2023-03-23T15:25:29;1.65;;;0.55;;
77738;SDS011;66904;59.926;30.404;2023-03-23T15:30:53;4.32;;;0.43;;
77738;SDS011;66904;59.926;30.404;2023-03-23T15:35:54;2.85;;;0.40;;
77738;SDS011;66904;59.926;30.404;2023-03-23T15:40:57;0.98;;;0.30;;
77738;SDS011;66904;59.926;30.404;2023-03-23T15:46:04;0.45;;;0.20;;
77738;SDS011;66904;59.926;30.404;2023-03-23T15:51:11;1.27;;;0.35;;
77738;SDS011;66904;59.926;30.404;2023-03-23T15:56:13;1.83;;;0.22;;
77738;SDS011;66904;59.926;30.404;2023-03-23T16:01:15;0.52;;;0.25;;
77738;SDS011;66904;59.926;30.404;2023-03-23T16:06:17;1.00;;;0.22;;
77738;SDS011;66904;59.926;30.404;2023-03-23T16:11:19;1.23;;;0.57;;
77738;SDS011;66904;59.926;30.404;2023-03-23T16:16:21;1.40;;;0.45;;
77738;SDS011;66904;59.926;30.404;2023-03-23T16:21:26;2.53;;;0.60;;
77738;SDS011;66904;59.926;30.404;2023-03-23T16:26:26;1.10;;;0.40;;
77738;SDS011;66904;59.926;30.404;2023-03-23T16:31:27;4.07;;;0.80;;
77738;SDS011;66904;59.926;30.404;2023-03-23T16:36:27;1.25;;;0.47;;
77738;SDS011;66904;59.926;30.404;2023-03-23T16:41:28;2.03;;;0.60;;
77738;SDS011;66904;59.926;30.404;2023-03-23T16:46:29;1.98;;;0.45;;
77738;SDS011;66904;59.926;30.404;2023-03-23T16:51:29;2.15;;;0.77;;
77738;SDS011;66904;59.926;30.404;2023-03-23T16:56:30;1.25;;;0.32;;
77738;SDS011;66904;59.926;30.404;2023-03-23T17:01:31;1.58;;;0.43;;
77738;SDS011;66904;59.926;30.404;2023-03-23T17:06:32;1.13;;;0.45;;
77738;SDS011;66904;59.926;30.404;2023-03-23T17:11:32;1.33;;;0.55;;
77738;SDS011;66904;59.926;30.404;2023-03-23T17:16:33;1.50;;;0.40;;
77738;SDS011;66904;59.926;30.404;2023-03-23T17:21:33;2.45;;;0.35;;
77738;SDS011;66904;59.926;30.404;2023-03-23T17:26:35;1.23;;;0.60;;
77738;SDS011;66904;59.926;30.404;2023-03-23T17:31:35;0.70;;;0.40;;
77738;SDS011;66904;59.926;30.404;2023-03-23T17:36:36;1.50;;;0.57;;
77738;SDS011;66904;59.926;30.404;2023-03-23T17:41:36;0.80;;;0.30;;
77738;SDS011;66904;59.926;30.404;2023-03-23T17:46:37;1.02;;;0.50;;
77738;SDS011;66904;59.926;30.404;2023-03-23T17:51:37;7.80;;;2.45;;
77738;SDS011;66904;59.926;30.404;2023-03-23T17:56:38;1.13;;;0.57;;
77738;SDS011;66904;59.926;30.404;2023-03-23T18:01:38;1.20;;;0.40;;
77738;SDS011;66904;59.926;30.404;2023-03-23T18:06:39;0.60;;;0.20;;
77738;SDS011;66904;59.926;30.404;2023-03-23T18:11:40;1.63;;;0.32;;
77738;SDS011;66904;59.926;30.404;2023-03-23T18:16:40;0.73;;;0.20;;
77738;SDS011;66904;59.926;30.404;2023-03-23T18:21:41;1.00;;;0.50;;
77738;SDS011;66904;59.926;30.404;2023-03-23T18:26:42;0.70;;;0.25;;
77738;SDS011;66904;59.926;30.404;2023-03-23T18:31:42;0.63;;;0.40;;
77738;SDS011;66904;59.926;30.404;2023-03-23T18:36:43;1.10;;;0.20;;
77738;SDS011;66904;59.926;30.404;2023-03-23T18:41:44;0.77;;;0.30;;
77738;SDS011;66904;59.926;30.404;2023-03-23T18:46:44;1.40;;;0.43;;
77738;SDS011;66904;59.926;30.404;2023-03-23T18:51:46;0.47;;;0.22;;
77738;SDS011;66904;59.926;30.404;2023-03-23T18:56:47;2.80;;;0.47;;
77738;SDS011;66904;59.926;30.404;2023-03-23T19:01:48;1.80;;;0.35;;
77738;SDS011;66904;59.926;30.404;2023-03-23T19:06:51;1.85;;;0.22;;
77738;SDS011;66904;59.926;30.404;2023-03-23T19:11:51;1.30;;;0.30;;
77738;SDS011;66904;59.926;30.404;2023-03-23T19:16:52;0.82;;;0.40;;
77738;SDS011;66904;59.926;30.404;2023-03-23T19:21:53;2.97;;;0.43;;
77738;SDS011;66904;59.926;30.404;2023-03-23T19:26:54;1.88;;;0.63;;
77738;SDS011;66904;59.926;30.404;2023-03-23T19:31:56;0.88;;;0.60;;
77738;SDS011;66904;59.926;30.404;2023-03-23T19:36:57;1.58;;;0.55;;
77738;SDS011;66904;59.926;30.404;2023-03-23T19:41:57;6.32;;;0.50;;
77738;SDS011;66904;59.926;30.404;2023-03-23T19:46:59;6.40;;;0.50;;
77738;SDS011;66904;59.926;30.404;2023-03-23T19:51:59;1.38;;;0.30;;
77738;SDS011;66904;59.926;30.404;2023-03-23T19:57:00;4.22;;;0.55;;
77738;SDS011;66904;59.926;30.404;2023-03-23T20:02:01;2.67;;;0.30;;
77738;SDS011;66904;59.926;30.404;2023-03-23T20:07:02;0.47;;;0.30;;
77738;SDS011;66904;59.926;30.404;2023-03-23T20:12:04;3.08;;;0.63;;
77738;SDS011;66904;59.926;30.404;2023-03-23T20:17:06;0.85;;;0.20;;
77738;SDS011;66904;59.926;30.404;2023-03-23T20:22:08;3.60;;;0.90;;
77738;SDS011;66904;59.926;30.404;2023-03-23T20:27:09;2.63;;;0.60;;
77738;SDS011;66904;59.926;30.404;2023-03-23T20:32:10;1.02;;;0.57;;
77738;SDS011;66904;59.926;30.404;2023-03-23T20:37:11;3.47;;;0.88;;
77738;SDS011;66904;59.926;30.404;2023-03-23T20:42:15;3.63;;;0.68;;
77738;SDS011;66904;59.926;30.404;2023-03-23T20:47:15;1.73;;;0.73;;
77738;SDS011;66904;59.926;30.404;2023-03-23T20:52:16;2.13;;;0.60;;
77738;SDS011;66904;59.926;30.404;2023-03-23T20:57:17;1.95;;;0.60;;
77738;SDS011;66904;59.926;30.404;2023-03-23T21:02:20;1.15;;;0.73;;
77738;SDS011;66904;59.926;30.404;2023-03-23T21:07:20;1.45;;;0.50;;
77738;SDS011;66904;59.926;30.404;2023-03-23T21:12:22;3.03;;;0.70;;
77738;SDS011;66904;59.926;30.404;2023-03-23T21:17:23;0.55;;;0.30;;
77738;SDS011;66904;59.926;30.404;2023-03-23T21:22:23;1.77;;;0.30;;
77738;SDS011;66904;59.926;30.404;2023-03-23T21:27:24;1.33;;;0.47;;
77738;SDS011;66904;59.926;30.404;2023-03-23T21:32:25;1.35;;;0.55;;
77738;SDS011;66904;59.926;30.404;2023-03-23T21:37:25;2.47;;;0.40;;
77738;SDS011;66904;59.926;30.404;2023-03-23T21:42:31;1.30;;;0.38;;
77738;SDS011;66904;59.926;30.404;2023-03-23T21:47:32;1.23;;;0.40;;
77738;SDS011;66904;59.926;30.404;2023-03-23T21:52:33;2.08;;;0.60;;
77738;SDS011;66904;59.926;30.404;2023-03-23T21:57:34;0.77;;;0.30;;
77738;SDS011;66904;59.926;30.404;2023-03-23T22:02:35;3.97;;;0.40;;
77738;SDS011;66904;59.926;30.404;2023-03-23T22:07:36;1.00;;;0.60;;
77738;SDS011;66904;59.926;30.404;2023-03-23T22:12:38;0.90;;;0.30;;
77738;SDS011;66904;59.926;30.404;2023-03-23T22:17:39;0.68;;;0.30;;
77738;SDS011;66904;59.926;30.404;2023-03-23T22:28:37;1.45;;;0.57;;
77738;SDS011;66904;59.926;30.404;2023-03-23T22:33:38;1.08;;;0.40;;
77738;SDS011;66904;59.926;30.404;2023-03-23T22:38:40;0.75;;;0.30;;
77738;SDS011;66904;59.926;30.404;2023-03-23T22:43:42;1.38;;;0.30;;
77738;SDS011;66904;59.926;30.404;2023-03-23T22:48:43;1.10;;;0.32;;
77738;SDS011;66904;59.926;30.404;2023-03-23T22:53:51;0.90;;;0.20;;
77738;SDS011;66904;59.926;30.404;2023-03-23T22:59:04;1.02;;;0.40;;
77738;SDS011;66904;59.926;30.404;2023-03-23T23:04:08;0.75;;;0.28;;
77738;SDS011;66904;59.926;30.404;2023-03-23T23:09:09;1.63;;;0.35;;
77738;SDS011;66904;59.926;30.404;2023-03-23T23:14:10;1.10;;;0.43;;
77738;SDS011;66904;59.926;30.404;2023-03-23T23:19:10;1.27;;;0.73;;
77738;SDS011;66904;59.926;30.404;2023-03-23T23:24:11;1.55;;;0.40;;
77738;SDS011;66904;59.926;30.404;2023-03-23T23:29:17;0.90;;;0.30;;
77738;SDS011;66904;59.926;30.404;2023-03-23T23:34:18;1.55;;;0.20;;
77738;SDS011;66904;59.926;30.404;2023-03-23T23:39:22;1.20;;;0.60;;
77738;SDS011;66904;59.926;30.404;2023-03-23T23:44:22;1.23;;;0.30;;
77738;SDS011;66904;59.926;30.404;2023-03-23T23:49:23;0.85;;;0.20;;
